createdAt,value
2018-07-12T00:01:24.907Z,24.90
2018-07-12T00:03:58.086Z,24.85
2018-07-12T00:06:27.649Z,24.94
2018-07-12T00:08:56.599Z,25.26
2018-07-12T00:11:25.860Z,25.23
2018-07-12T00:13:54.448Z,25.32
2018-07-12T00:16:23.459Z,25.42
2018-07-12T00:18:53.450Z,25.65
2018-07-12T00:21:23.855Z,25.53
2018-07-12T00:23:53.732Z,25.78
2018-07-12T00:26:23.228Z,25.48
2018-07-12T00:28:52.993Z,25.57
2018-07-12T00:31:22.461Z,25.50
2018-07-12T00:34:00.209Z,25.45
2018-07-12T00:36:38.054Z,25.39
2018-07-12T00:39:08.074Z,25.39
2018-07-12T00:41:36.644Z,25.34
2018-07-12T00:44:05.237Z,25.18
2018-07-12T00:46:33.870Z,25.01
2018-07-12T00:49:07.650Z,24.81
2018-07-12T00:51:36.243Z,24.72
2018-07-12T00:54:06.412Z,24.73
2018-07-12T00:56:37.396Z,24.79
2018-07-12T00:59:10.295Z,24.67
2018-07-12T01:01:39.903Z,24.65
2018-07-12T01:10:46.288Z,24.62
2018-07-12T01:13:21.855Z,23.93
2018-07-12T01:15:54.460Z,23.79
2018-07-12T01:18:23.826Z,23.69
2018-07-12T01:21:10.048Z,23.65
2018-07-12T01:23:39.774Z,23.57
2018-07-12T01:26:10.203Z,23.70
2018-07-12T01:28:38.759Z,23.66
2018-07-12T01:31:07.865Z,23.72
2018-07-12T01:33:36.518Z,23.72
2018-07-12T01:36:05.176Z,23.66
2018-07-12T01:38:34.645Z,23.73
2018-07-12T01:41:03.343Z,23.82
2018-07-12T01:43:31.989Z,23.89
2018-07-12T01:46:00.647Z,23.82
2018-07-12T01:48:31.258Z,23.81
2018-07-12T01:50:59.858Z,23.66
2018-07-12T01:53:29.450Z,23.57
2018-07-12T01:56:00.059Z,23.61
2018-07-12T01:58:28.676Z,23.89
2018-07-12T02:00:58.189Z,23.91
2018-07-12T02:03:28.123Z,23.84
2018-07-12T02:05:56.747Z,24.00
2018-07-12T02:08:25.282Z,24.01
2018-07-12T02:10:55.128Z,23.90
2018-07-12T02:13:23.659Z,24.03
2018-07-12T02:15:52.396Z,23.87
2018-07-12T02:18:20.935Z,23.72
2018-07-12T02:20:49.533Z,23.57
2018-07-12T02:23:22.222Z,23.30
2018-07-12T02:25:51.920Z,23.34
2018-07-12T02:28:20.494Z,23.30
2018-07-12T02:30:50.346Z,23.35
2018-07-12T02:33:19.299Z,23.33
2018-07-12T02:35:48.256Z,23.36
2018-07-12T02:38:17.887Z,23.36
2018-07-12T02:40:46.474Z,23.39
2018-07-12T02:43:15.092Z,23.36
2018-07-12T02:45:47.537Z,23.37
2018-07-12T02:48:17.031Z,23.36
2018-07-12T02:50:45.719Z,23.17
2018-07-12T02:53:14.293Z,23.35
2018-07-12T02:55:45.184Z,23.34
2018-07-12T02:58:13.877Z,23.31
2018-07-12T03:00:42.468Z,23.23
2018-07-12T03:03:17.180Z,23.17
2018-07-12T03:05:45.731Z,23.16
2018-07-12T03:08:14.363Z,23.21
2018-07-12T03:10:44.424Z,23.27
2018-07-12T03:13:15.183Z,23.28
2018-07-12T03:15:43.814Z,23.28
2018-07-12T03:18:13.005Z,23.17
2018-07-12T03:20:41.648Z,23.16
2018-07-12T03:23:10.479Z,23.25
2018-07-12T03:25:39.315Z,23.35
2018-07-12T03:28:07.918Z,23.51
2018-07-12T03:30:36.530Z,23.62
2018-07-12T03:33:05.448Z,23.88
2018-07-12T03:35:34.026Z,23.79
2018-07-12T03:38:02.636Z,23.85
2018-07-12T03:40:31.321Z,23.90
2018-07-12T03:42:59.927Z,23.95
2018-07-12T03:45:28.794Z,24.12
2018-07-12T03:47:57.397Z,24.17
2018-07-12T03:50:26.033Z,24.07
2018-07-12T03:52:55.935Z,24.02
2018-07-12T03:55:24.569Z,23.91
2018-07-12T03:57:53.238Z,23.85
2018-07-12T04:00:22.074Z,23.81
2018-07-12T04:02:51.388Z,23.93
2018-07-12T04:05:22.899Z,24.14
2018-07-12T04:07:51.515Z,24.46
2018-07-12T04:10:20.083Z,24.54
2018-07-12T04:12:49.061Z,24.83
2018-07-12T04:15:18.265Z,25.00
2018-07-12T04:17:46.859Z,24.97
2018-07-12T04:20:15.412Z,25.05
2018-07-12T04:22:49.464Z,25.08
2018-07-12T04:25:18.122Z,25.01
2018-07-12T04:27:49.649Z,25.21
2018-07-12T04:30:19.673Z,25.35
2018-07-12T04:32:48.258Z,25.35
2018-07-12T04:35:16.865Z,25.15
2018-07-12T04:37:45.573Z,25.45
2018-07-12T04:40:14.825Z,26.43
2018-07-12T04:42:43.727Z,26.85
2018-07-12T04:45:14.089Z,26.99
2018-07-12T04:47:44.418Z,27.31
2018-07-12T04:50:14.412Z,27.41
2018-07-12T04:52:43.315Z,27.43
2018-07-12T04:55:12.883Z,27.56
2018-07-12T04:57:41.879Z,27.52
2018-07-12T05:00:10.420Z,27.39
2018-07-12T05:02:38.951Z,27.28
2018-07-12T05:05:07.879Z,27.11
2018-07-12T05:07:36.468Z,26.77
2018-07-12T05:10:05.052Z,26.77
2018-07-12T05:12:34.706Z,26.79
2018-07-12T05:15:05.065Z,26.80
2018-07-12T05:17:33.656Z,26.71
2018-07-12T05:20:02.437Z,26.54
2018-07-12T05:22:31.069Z,26.49
2018-07-12T05:25:01.202Z,26.42
2018-07-12T05:27:34.778Z,26.34
2018-07-12T05:30:05.844Z,26.30
2018-07-12T05:32:36.415Z,26.00
2018-07-12T05:35:05.405Z,26.10
2018-07-12T05:37:38.520Z,26.16
2018-07-12T05:40:11.691Z,25.88
2018-07-12T05:42:41.649Z,26.14
2018-07-12T05:47:47.268Z,26.60
2018-07-12T05:50:18.804Z,27.00
2018-07-12T05:52:51.041Z,27.14
2018-07-12T05:55:23.736Z,27.19
2018-07-12T05:57:55.832Z,27.29
2018-07-12T06:00:26.916Z,27.40
2018-07-12T06:02:57.379Z,27.66
2018-07-12T06:05:29.660Z,27.65
2018-07-12T06:08:00.284Z,27.50
2018-07-12T06:10:30.981Z,27.66
2018-07-12T06:13:05.228Z,27.64
2018-07-12T06:15:37.191Z,27.89
2018-07-12T06:18:11.570Z,27.86
2018-07-12T06:23:44.471Z,28.38
2018-07-12T06:26:16.456Z,28.29
2018-07-12T06:28:48.153Z,28.26
2018-07-12T06:31:20.341Z,27.99
2018-07-12T06:33:53.549Z,28.03
2018-07-12T06:36:25.234Z,28.05
2018-07-12T06:39:01.438Z,28.00
2018-07-12T06:41:33.764Z,28.40
2018-07-12T06:44:08.213Z,28.69
2018-07-12T06:46:39.800Z,29.00
2018-07-12T06:49:12.421Z,29.28
2018-07-12T06:51:44.181Z,29.17
2018-07-12T06:54:16.892Z,30.07
2018-07-12T06:56:49.535Z,30.85
2018-07-12T06:59:21.047Z,31.20
2018-07-12T07:01:53.512Z,31.35
2018-07-12T07:04:39.439Z,31.51
2018-07-12T07:07:45.278Z,31.64
2018-07-12T07:10:17.846Z,32.13
2018-07-12T07:12:50.098Z,32.76
2018-07-12T07:15:23.070Z,33.85
2018-07-12T07:17:55.303Z,33.67
2018-07-12T07:20:32.280Z,33.99
2018-07-12T07:23:08.221Z,33.92
2018-07-12T07:25:40.414Z,33.26
2018-07-12T07:28:14.889Z,32.88
2018-07-12T07:30:48.741Z,32.58
2018-07-12T07:33:21.263Z,32.42
2018-07-12T07:35:54.539Z,31.66
2018-07-12T07:38:29.953Z,31.30
2018-07-12T07:41:03.512Z,31.15
2018-07-12T07:43:36.580Z,30.74
2018-07-12T07:46:10.473Z,30.58
2018-07-12T07:48:45.263Z,30.56
2018-07-12T07:51:17.318Z,30.53
2018-07-12T07:53:49.384Z,30.47
2018-07-12T07:56:23.277Z,30.34
2018-07-12T07:58:53.962Z,29.86
2018-07-12T08:01:35.408Z,29.67
2018-07-12T08:04:07.403Z,30.09
2018-07-12T08:06:43.577Z,29.19
2018-07-12T08:09:15.312Z,28.88
2018-07-12T08:12:00.407Z,28.93
2018-07-12T08:14:33.526Z,29.63
2018-07-12T08:17:09.368Z,29.77
2018-07-12T08:19:47.512Z,29.99
2018-07-12T08:22:22.877Z,30.19
2018-07-12T08:24:55.354Z,30.45
2018-07-12T08:27:28.771Z,30.85
2018-07-12T08:30:04.939Z,30.71
2018-07-12T08:32:39.511Z,30.87
2018-07-12T08:35:12.004Z,31.17
2018-07-12T08:37:45.630Z,31.48
2018-07-12T08:40:18.080Z,31.91
2018-07-12T08:42:50.630Z,32.14
2018-07-12T08:45:23.564Z,32.34
2018-07-12T08:47:56.582Z,32.60
2018-07-12T08:50:30.335Z,32.77
2018-07-12T08:53:04.253Z,32.62
2018-07-12T08:55:36.477Z,32.90
2018-07-12T08:58:09.861Z,33.25
2018-07-12T09:00:59.517Z,34.18
2018-07-12T09:03:32.612Z,34.38
2018-07-12T09:06:13.579Z,34.64
2018-07-12T09:08:45.227Z,34.86
2018-07-12T09:11:17.841Z,35.33
2018-07-12T09:13:55.353Z,35.37
2018-07-12T09:16:36.753Z,35.10
2018-07-12T09:19:20.098Z,34.58
2018-07-12T09:21:56.951Z,34.69
2018-07-12T09:24:29.305Z,34.81
2018-07-12T09:27:03.266Z,34.97
2018-07-12T09:29:35.358Z,35.27
2018-07-12T09:32:10.444Z,34.99
2018-07-12T09:34:47.562Z,34.40
2018-07-12T09:37:21.245Z,33.80
2018-07-12T09:39:53.868Z,33.47
2018-07-12T09:42:31.392Z,33.61
2018-07-12T09:45:04.487Z,33.83
2018-07-12T09:47:39.863Z,34.13
2018-07-12T09:50:13.534Z,34.27
2018-07-12T09:52:46.610Z,34.84
2018-07-12T09:55:18.717Z,35.94
2018-07-12T09:58:03.113Z,36.41
2018-07-12T10:00:40.102Z,36.40
2018-07-12T10:03:22.451Z,36.54
2018-07-12T10:06:00.202Z,36.33
2018-07-12T10:08:50.114Z,36.21
2018-07-12T10:11:30.150Z,36.18
2018-07-12T10:14:10.724Z,36.36
2018-07-12T10:16:45.233Z,36.66
2018-07-12T10:19:23.328Z,36.91
2018-07-12T10:21:58.998Z,37.16
2018-07-12T10:24:33.066Z,37.25
2018-07-12T10:27:09.074Z,37.10
2018-07-12T10:29:47.112Z,36.90
2018-07-12T10:32:27.333Z,36.76
2018-07-12T10:35:02.329Z,36.46
2018-07-12T10:37:36.229Z,36.23
2018-07-12T10:40:14.578Z,35.80
2018-07-12T10:42:52.445Z,35.43
2018-07-12T10:45:35.319Z,35.16
2018-07-12T10:48:11.519Z,35.00
2018-07-12T10:50:49.326Z,34.49
2018-07-12T10:53:28.819Z,35.38
2018-07-12T10:56:02.184Z,34.75
2018-07-12T10:58:38.099Z,35.21
2018-07-12T11:01:11.439Z,35.33
2018-07-12T11:03:50.426Z,35.40
2018-07-12T11:06:27.302Z,35.98
2018-07-12T11:09:07.763Z,36.64
2018-07-12T11:11:44.251Z,37.05
2018-07-12T11:14:20.495Z,36.92
2018-07-12T11:16:59.276Z,36.47
2018-07-12T11:19:49.409Z,37.14
2018-07-12T11:22:35.781Z,36.12
2018-07-12T11:25:18.364Z,36.94
2018-07-12T11:27:53.562Z,37.55
2018-07-12T11:30:35.210Z,38.04
2018-07-12T11:33:20.583Z,38.41
2018-07-12T11:36:05.682Z,38.36
2018-07-12T11:38:46.524Z,38.37
2018-07-12T11:41:23.006Z,38.89
2018-07-12T11:43:58.161Z,38.94
2018-07-12T11:46:40.732Z,38.58
2018-07-12T11:49:23.930Z,38.08
2018-07-12T11:52:01.301Z,37.46
2018-07-12T11:54:42.433Z,37.53
2018-07-12T11:57:17.808Z,37.66
2018-07-12T11:59:53.769Z,37.72
2018-07-12T12:02:30.814Z,38.36
2018-07-12T12:05:12.179Z,38.95
2018-07-12T12:07:53.820Z,39.24
2018-07-12T12:10:28.611Z,39.29
2018-07-12T12:13:05.422Z,39.38
2018-07-12T12:15:42.310Z,39.16
2018-07-12T12:18:19.391Z,38.74
2018-07-12T12:20:54.594Z,38.76
2018-07-12T12:23:31.748Z,38.60
2018-07-12T12:26:07.740Z,38.69
2018-07-12T12:28:48.041Z,38.99
2018-07-12T12:31:22.041Z,38.51
2018-07-12T12:34:00.633Z,37.98
2018-07-12T12:36:35.523Z,37.52
2018-07-12T12:39:09.020Z,37.42
2018-07-12T12:41:48.471Z,37.49
2018-07-12T12:44:24.197Z,37.64
2018-07-12T12:47:05.417Z,37.82
2018-07-12T12:49:41.148Z,38.48
2018-07-12T12:52:20.613Z,39.38
2018-07-12T12:55:02.309Z,39.92
2018-07-12T12:57:38.297Z,39.12
2018-07-12T13:00:21.692Z,38.86
2018-07-12T13:03:04.724Z,38.45
2018-07-12T13:05:45.585Z,38.18
2018-07-12T13:08:32.260Z,37.70
2018-07-12T13:11:12.690Z,37.87
2018-07-12T13:13:50.082Z,37.50
2018-07-12T13:16:25.982Z,37.46
2018-07-12T13:19:04.185Z,37.64
2018-07-12T13:21:40.398Z,37.77
2018-07-12T13:24:17.653Z,37.81
2018-07-12T13:26:53.531Z,38.10
2018-07-12T13:29:33.629Z,38.13
2018-07-12T13:32:18.244Z,38.70
2018-07-12T13:34:56.373Z,39.53
2018-07-12T13:37:32.438Z,39.65
2018-07-12T13:40:07.986Z,39.78
2018-07-12T13:42:41.440Z,39.38
2018-07-12T13:45:24.716Z,39.24
2018-07-12T13:48:00.869Z,39.46
2018-07-12T13:50:35.391Z,39.62
2018-07-12T13:53:13.200Z,39.48
2018-07-12T13:55:48.976Z,39.99
2018-07-12T13:58:23.901Z,39.94
2018-07-12T14:01:00.033Z,40.22
2018-07-12T14:03:36.620Z,40.87
2018-07-12T14:06:13.519Z,41.42
2018-07-12T14:08:53.137Z,41.48
2018-07-12T14:11:32.479Z,41.68
2018-07-12T14:14:12.676Z,41.51
2018-07-12T14:16:50.459Z,41.36
2018-07-12T14:19:27.278Z,41.54
2018-07-12T14:22:07.163Z,41.84
2018-07-12T14:24:48.639Z,42.13
2018-07-12T14:27:26.666Z,42.20
2018-07-12T14:30:10.671Z,41.98
2018-07-12T14:32:46.414Z,41.93
2018-07-12T14:35:20.944Z,41.60
2018-07-12T14:37:54.593Z,40.94
2018-07-12T14:40:28.941Z,41.13
2018-07-12T14:43:05.379Z,41.45
2018-07-12T14:45:48.442Z,41.44
2018-07-12T14:48:27.632Z,41.50
2018-07-12T14:51:07.336Z,41.24
2018-07-12T14:53:46.035Z,41.18
2018-07-12T14:56:22.707Z,41.23
2018-07-12T14:58:59.398Z,41.56
2018-07-12T15:01:34.345Z,42.09
2018-07-12T15:04:07.836Z,41.65
2018-07-12T15:06:44.558Z,41.43
2018-07-12T15:09:21.220Z,41.74
2018-07-12T15:11:54.899Z,41.90
2018-07-12T15:14:32.071Z,42.17
2018-07-12T15:17:10.655Z,42.03
2018-07-12T15:19:46.073Z,41.68
2018-07-12T15:22:21.505Z,41.13
2018-07-12T15:24:55.974Z,39.69
2018-07-12T15:27:30.426Z,39.55
2018-07-12T15:30:06.478Z,39.78
2018-07-12T15:32:39.575Z,40.06
2018-07-12T15:35:14.533Z,40.22
2018-07-12T15:37:49.174Z,40.18
2018-07-12T15:40:23.578Z,39.82
2018-07-12T15:42:58.877Z,39.24
2018-07-12T15:45:34.550Z,39.31
2018-07-12T15:48:13.699Z,38.71
2018-07-12T15:50:49.029Z,37.76
2018-07-12T15:53:28.030Z,37.57
2018-07-12T15:56:08.338Z,38.23
2018-07-12T15:58:46.162Z,38.42
2018-07-12T16:01:28.000Z,38.60
2018-07-12T16:04:10.641Z,38.88
2018-07-12T16:07:00.125Z,38.95
2018-07-12T16:09:40.875Z,37.88
2018-07-12T16:12:17.086Z,38.28
2018-07-12T16:14:56.370Z,38.63
2018-07-12T16:17:33.134Z,39.21
2018-07-12T16:20:14.292Z,39.66
2018-07-12T16:22:55.007Z,40.13
2018-07-12T16:25:34.368Z,39.75
2018-07-12T16:28:16.656Z,39.66
2018-07-12T16:30:53.845Z,39.42
2018-07-12T16:33:34.866Z,39.65
2018-07-12T16:36:13.664Z,39.88
2018-07-12T16:39:01.274Z,40.19
2018-07-12T16:41:40.139Z,40.14
2018-07-12T16:44:18.785Z,40.39
2018-07-12T16:46:57.304Z,40.73
2018-07-12T16:49:45.759Z,40.84
2018-07-12T16:52:27.336Z,41.08
2018-07-12T16:55:06.464Z,40.78
2018-07-12T16:57:44.141Z,40.79
2018-07-12T17:00:25.737Z,40.98
2018-07-12T17:03:00.353Z,40.87
2018-07-12T17:05:35.163Z,40.32
2018-07-12T17:08:12.456Z,40.74
2018-07-12T17:10:46.722Z,40.47
2018-07-12T17:13:23.477Z,40.50
2018-07-12T17:15:59.537Z,40.44
2018-07-12T17:18:38.524Z,40.40
2018-07-12T17:21:15.094Z,40.15
2018-07-12T17:23:48.918Z,39.87
2018-07-12T17:26:25.520Z,39.19
2018-07-12T17:29:00.161Z,38.68
2018-07-12T17:31:40.634Z,38.71
2018-07-12T17:34:21.093Z,38.36
2018-07-12T17:36:58.459Z,38.25
2018-07-12T17:42:30.673Z,38.46
2018-07-12T17:45:18.664Z,38.74
2018-07-12T17:47:58.830Z,38.32
2018-07-12T17:50:31.583Z,39.01
2018-07-12T17:53:06.465Z,39.02
2018-07-12T17:55:42.493Z,39.04
2018-07-12T17:58:15.859Z,39.11
2018-07-12T18:00:50.966Z,39.13
2018-07-12T18:03:27.253Z,38.93
2018-07-12T18:06:00.594Z,38.70
2018-07-12T18:08:38.281Z,38.26
2018-07-12T18:11:20.418Z,37.71
2018-07-12T18:14:04.939Z,37.22
2018-07-12T18:16:53.343Z,36.52
2018-07-12T18:19:37.075Z,36.24
2018-07-12T18:22:15.735Z,36.04
2018-07-12T18:25:09.156Z,35.56
2018-07-12T18:27:51.424Z,35.43
2018-07-12T18:30:28.419Z,35.36
2018-07-12T18:33:10.535Z,35.25
2018-07-12T18:35:59.613Z,34.95
2018-07-12T18:38:50.296Z,34.80
2018-07-12T18:41:29.264Z,34.68
2018-07-12T18:44:10.123Z,34.61
2018-07-12T18:46:49.194Z,34.67
2018-07-12T18:49:22.373Z,34.65
2018-07-12T18:51:56.245Z,34.73
2018-07-12T18:54:30.511Z,34.71
2018-07-12T18:57:02.074Z,34.67
2018-07-12T18:59:36.813Z,34.25
2018-07-12T19:02:09.186Z,33.70
2018-07-12T19:04:40.129Z,33.09
2018-07-12T19:07:14.641Z,32.62
2018-07-12T19:09:52.309Z,31.99
2018-07-12T19:12:27.333Z,31.71
2018-07-12T19:14:59.593Z,31.43
2018-07-12T19:17:31.353Z,31.14
2018-07-12T19:20:06.341Z,30.89
2018-07-12T19:22:39.727Z,30.70
2018-07-12T19:25:12.765Z,30.62
2018-07-12T19:27:50.336Z,30.41
2018-07-12T19:30:34.754Z,30.33
2018-07-12T19:35:56.940Z,30.18
2018-07-12T19:38:47.917Z,29.97
2018-07-12T19:41:27.309Z,29.87
2018-07-12T19:44:04.869Z,29.79
2018-07-12T19:46:36.567Z,29.73
2018-07-12T19:49:10.981Z,29.65
2018-07-12T19:54:32.153Z,29.67
2018-07-12T19:57:05.635Z,29.60
2018-07-12T19:59:48.145Z,29.61
2018-07-12T20:02:22.141Z,29.85
2018-07-12T20:04:56.561Z,29.75
2018-07-12T20:07:31.056Z,29.76
2018-07-12T20:10:04.026Z,29.82
2018-07-12T20:12:35.676Z,29.34
2018-07-12T20:15:21.049Z,28.94
2018-07-12T20:18:03.425Z,28.76
2018-07-12T20:20:40.707Z,28.93
2018-07-12T20:23:19.315Z,28.93
2018-07-12T20:26:03.435Z,28.85
2018-07-12T20:28:39.949Z,28.85
2018-07-12T20:31:13.494Z,28.96
2018-07-12T20:33:44.285Z,28.75
2018-07-12T20:36:18.470Z,28.67
2018-07-12T20:38:51.769Z,28.79
2018-07-12T20:41:25.403Z,28.85
2018-07-12T20:43:57.848Z,28.84
2018-07-12T20:46:33.919Z,28.85
2018-07-12T20:49:07.364Z,28.69
2018-07-12T20:51:40.875Z,28.77
2018-07-12T20:54:13.515Z,28.76
2018-07-12T20:56:47.915Z,28.72
2018-07-12T20:59:19.479Z,28.71
2018-07-12T21:01:52.140Z,28.55
2018-07-12T21:04:25.510Z,28.54
2018-07-12T21:07:00.200Z,28.40
2018-07-12T21:09:33.791Z,28.36
2018-07-12T21:12:06.925Z,28.48
2018-07-12T21:14:41.318Z,28.41
2018-07-12T21:17:17.337Z,28.30
2018-07-12T21:20:00.378Z,28.35
2018-07-12T21:22:39.805Z,28.36
2018-07-12T21:25:12.533Z,28.37
2018-07-12T21:27:46.212Z,28.38
2018-07-12T21:30:17.273Z,28.35
2018-07-12T21:32:49.397Z,28.46
2018-07-12T21:35:31.090Z,28.60
2018-07-12T21:38:11.528Z,28.64
2018-07-12T21:40:46.581Z,28.65
2018-07-12T21:46:05.173Z,28.60
2018-07-12T21:48:42.041Z,28.70
2018-07-12T21:51:16.706Z,28.73
2018-07-12T21:53:49.233Z,28.72
2018-07-12T21:56:23.338Z,28.63
2018-07-12T21:58:55.375Z,28.49
2018-07-12T22:01:29.858Z,28.41
2018-07-12T22:04:03.411Z,28.32
2018-07-12T22:11:11.402Z,28.46
2018-07-12T22:13:43.825Z,28.19
2018-07-12T22:16:19.606Z,28.21
2018-07-12T22:18:59.274Z,28.14
2018-07-12T22:24:18.248Z,27.94
2018-07-12T22:26:52.745Z,27.91
2018-07-12T22:29:25.683Z,27.86
2018-07-12T22:31:58.081Z,27.82
2018-07-12T22:34:30.972Z,27.73
2018-07-12T22:37:03.265Z,27.68
2018-07-12T22:39:39.606Z,27.73
2018-07-12T22:42:15.611Z,27.78
2018-07-12T22:44:49.216Z,27.80
2018-07-12T22:47:21.967Z,27.91
2018-07-12T22:52:41.011Z,28.13
2018-07-12T22:55:21.335Z,28.19
2018-07-12T22:57:55.323Z,28.07
2018-07-12T23:00:26.603Z,28.16
2018-07-12T23:02:58.184Z,28.23
2018-07-12T23:05:32.487Z,28.17
2018-07-12T23:08:04.101Z,28.04
2018-07-12T23:10:37.333Z,27.99
2018-07-12T23:13:07.969Z,27.90
2018-07-12T23:15:38.617Z,27.74
2018-07-12T23:18:09.480Z,27.52
2018-07-12T23:20:40.080Z,27.71
2018-07-12T23:23:11.715Z,27.69
2018-07-12T23:25:42.454Z,27.46
2018-07-12T23:28:13.525Z,26.75
2018-07-12T23:30:56.499Z,27.58
2018-07-12T23:33:29.940Z,27.61
2018-07-12T23:36:04.227Z,27.44
2018-07-12T23:38:37.111Z,27.39
2018-07-12T23:41:10.535Z,27.39
2018-07-12T23:43:42.914Z,27.37
2018-07-12T23:46:13.861Z,27.28
2018-07-12T23:48:44.651Z,27.41
2018-07-12T23:51:21.635Z,27.31
2018-07-12T23:53:51.906Z,27.12
2018-07-12T23:56:24.201Z,26.95
2018-07-12T23:58:56.621Z,27.07
